Time;durP1;ratioP1;P1;durP2;ratioP2;P2;SDS_P1;SDS_P2;PMS_P1;PMS_P2;Temp;Humidity;BMP_temperature;BMP_pressure;BME280_temperature;BME280_humidity;BME280_pressure;Samples;Min_cycle;Max_cycle;Signal;HPM_P1;HPM_P2
2022/08/24 00:02:20;;;;;;;19.30;13.50;;;19.60;99.90;;;;;;4955577;28;20035;-75
2022/08/24 00:04:47;;;;;;;23.05;14.45;;;19.60;99.90;;;;;;4955960;28;20037;-76
2022/08/24 00:07:14;;;;;;;19.02;14.00;;;19.60;99.90;;;;;;4965224;28;20162;-75
2022/08/24 00:09:40;;;;;;;22.83;14.35;;;19.50;99.90;;;;;;4955686;28;20046;-77
2022/08/24 00:12:07;;;;;;;18.08;12.80;;;19.60;99.90;;;;;;4956283;28;20046;-75
2022/08/24 00:14:33;;;;;;;19.00;13.00;;;19.60;99.90;;;;;;4956173;28;20547;-69
2022/08/24 00:17:00;;;;;;;16.70;11.77;;;19.40;99.90;;;;;;4955080;28;20032;-77
2022/08/24 00:19:27;;;;;;;18.85;11.52;;;19.50;99.90;;;;;;4955943;28;20082;-72
2022/08/24 00:21:53;;;;;;;18.38;13.15;;;19.50;99.90;;;;;;4955821;28;20039;-76
2022/08/24 00:24:19;;;;;;;17.13;11.25;;;19.40;99.90;;;;;;4955963;28;20242;-77
2022/08/24 00:26:46;;;;;;;16.50;11.35;;;19.50;99.90;;;;;;4956160;28;20058;-73
2022/08/24 00:29:16;;;;;;;14.98;9.50;;;19.40;99.90;;;;;;4987755;28;20095;-76
2022/08/24 00:31:42;;;;;;;18.58;11.02;;;19.50;99.90;;;;;;4964074;28;20051;-77
2022/08/24 00:34:09;;;;;;;16.45;10.43;;;19.40;99.90;;;;;;4987094;28;20402;-73
2022/08/24 00:36:35;;;;;;;17.60;10.23;;;19.40;99.90;;;;;;4954877;28;20094;-73
2022/08/24 00:39:02;;;;;;;15.30;9.75;;;19.50;99.90;;;;;;4973622;28;20030;-75
2022/08/24 00:41:28;;;;;;;16.73;10.63;;;19.50;99.90;;;;;;4986653;28;20486;-74
2022/08/24 00:44:03;;;;;;;16.35;9.45;;;19.50;99.90;;;;;;4970033;28;20023;-61
2022/08/24 00:46:38;;;;;;;15.32;9.63;;;19.50;99.90;;;;;;4950884;29;20458;-76
2022/08/24 00:49:10;;;;;;;14.45;9.73;;;19.50;99.90;;;;;;4944424;29;20134;-69
2022/08/24 00:51:44;;;;;;;19.63;10.57;;;19.50;99.90;;;;;;4954527;28;20058;-75
2022/08/24 00:54:14;;;;;;;13.77;8.85;;;19.50;99.90;;;;;;4986540;28;20027;-73
2022/08/24 00:56:55;;;;;;;15.48;8.90;;;19.50;99.90;;;;;;4955682;28;20114;-72
2022/08/24 00:59:25;;;;;;;14.85;9.73;;;19.50;99.90;;;;;;4970001;28;20113;-62
2022/08/24 01:01:53;;;;;;;15.10;8.95;;;19.50;99.90;;;;;;4955348;28;20118;-62
2022/08/24 01:04:27;;;;;;;14.57;8.30;;;19.50;99.90;;;;;;4954000;28;20031;-62
2022/08/24 01:06:55;;;;;;;14.13;8.75;;;19.40;99.90;;;;;;4954286;28;20033;-66
2022/08/24 01:09:21;;;;;;;13.27;7.38;;;19.50;99.90;;;;;;4968751;28;20058;-75
2022/08/24 01:11:48;;;;;;;17.10;8.88;;;19.50;99.90;;;;;;4970046;28;20035;-62
2022/08/24 01:14:17;;;;;;;14.43;8.27;;;19.50;99.90;;;;;;4951848;28;20498;-76
2022/08/24 01:19:34;;;;;;;12.85;7.60;;;19.50;99.90;;;;;;4953513;29;20038;-77
2022/08/24 01:22:32;;;;;;;11.83;7.43;;;19.50;99.90;;;;;;4953628;29;20062;-77
2022/08/24 01:24:58;;;;;;;13.48;7.28;;;19.50;99.90;;;;;;4933989;29;20118;-63
2022/08/24 01:27:25;;;;;;;10.90;7.13;;;19.50;99.90;;;;;;4933121;29;20035;-76
2022/08/24 01:29:52;;;;;;;12.20;8.15;;;19.60;99.90;;;;;;4916578;29;20050;-75
2022/08/24 01:32:22;;;;;;;19.77;8.88;;;19.50;99.90;;;;;;4917595;29;20028;-70
2022/08/24 01:34:48;;;;;;;12.60;8.82;;;19.50;99.90;;;;;;4933866;29;20086;-76
2022/08/24 01:37:15;;;;;;;18.02;9.52;;;19.50;99.90;;;;;;4917817;29;20422;-76
2022/08/24 01:39:46;;;;;;;17.45;9.18;;;19.50;99.90;;;;;;4933023;29;20078;-77
2022/08/24 01:42:13;;;;;;;17.15;10.57;;;19.60;99.90;;;;;;4933461;29;20379;-77
2022/08/24 01:44:42;;;;;;;15.27;10.13;;;19.50;99.90;;;;;;4915068;29;20040;-75
2022/08/24 01:47:10;;;;;;;16.83;10.95;;;19.60;99.90;;;;;;4932719;29;20051;-75
2022/08/24 01:49:40;;;;;;;16.10;10.43;;;19.50;99.90;;;;;;4919978;29;20396;-69
2022/08/24 01:52:08;;;;;;;16.30;10.57;;;19.50;99.90;;;;;;4931681;29;20043;-76
2022/08/24 01:54:34;;;;;;;18.52;11.98;;;19.50;99.90;;;;;;4915816;29;20031;-73
2022/08/24 01:57:01;;;;;;;15.60;9.32;;;19.50;99.90;;;;;;4930986;29;20043;-75
2022/08/24 01:59:29;;;;;;;16.33;10.52;;;19.50;99.90;;;;;;4932660;29;20032;-74
2022/08/24 02:02:01;;;;;;;15.40;10.75;;;19.50;99.90;;;;;;4959096;28;20050;-74
2022/08/24 02:04:27;;;;;;;19.70;11.10;;;19.60;99.90;;;;;;4953795;28;20036;-75
2022/08/24 02:06:54;;;;;;;15.80;9.05;;;19.50;99.90;;;;;;4985672;28;20035;-75
2022/08/24 02:09:20;;;;;;;15.65;11.82;;;19.50;99.90;;;;;;4985372;28;20478;-74
2022/08/24 02:11:47;;;;;;;15.98;9.93;;;19.50;99.90;;;;;;4967364;28;20072;-74
2022/08/24 02:14:13;;;;;;;14.05;9.15;;;19.50;99.90;;;;;;4953159;29;20054;-74
2022/08/24 02:16:39;;;;;;;18.42;9.57;;;19.50;99.90;;;;;;4969157;28;20031;-74
2022/08/24 02:19:05;;;;;;;14.68;9.68;;;19.50;99.90;;;;;;4969138;28;20034;-74
2022/08/24 02:21:31;;;;;;;16.23;8.95;;;19.50;99.90;;;;;;4969027;28;20043;-73
2022/08/24 02:23:57;;;;;;;16.33;8.80;;;19.50;99.90;;;;;;4969404;28;20119;-74
2022/08/24 02:26:24;;;;;;;14.93;8.57;;;19.50;99.90;;;;;;4969420;28;20050;-74
2022/08/24 02:28:50;;;;;;;13.15;8.15;;;19.60;99.90;;;;;;4968996;28;20037;-72
2022/08/24 02:31:16;;;;;;;12.75;8.27;;;19.60;99.90;;;;;;4955445;28;20108;-71
2022/08/24 02:33:43;;;;;;;16.88;9.82;;;19.50;99.90;;;;;;4953009;28;20039;-74
2022/08/24 02:36:10;;;;;;;15.23;8.07;;;19.50;99.90;;;;;;4954519;28;20386;-64
2022/08/24 02:38:37;;;;;;;12.85;7.82;;;19.50;99.90;;;;;;4954359;28;20082;-72
2022/08/24 02:41:09;;;;;;;13.40;7.93;;;19.50;99.90;;;;;;4971296;28;20066;-74
2022/08/24 02:43:35;;;;;;;13.10;7.45;;;19.50;99.90;;;;;;4956617;29;20039;-75
2022/08/24 02:46:01;;;;;;;11.88;7.55;;;19.50;99.90;;;;;;4956560;28;20058;-74
2022/08/24 02:48:27;;;;;;;11.98;7.18;;;19.50;99.90;;;;;;4956714;28;20028;-75
2022/08/24 02:50:53;;;;;;;12.30;7.40;;;19.50;99.90;;;;;;4972843;28;20462;-75
2022/08/24 02:53:21;;;;;;;10.45;6.63;;;19.50;99.90;;;;;;4954904;29;20497;-72
2022/08/24 02:55:48;;;;;;;13.63;7.75;;;19.40;99.90;;;;;;4970866;28;20031;-74
2022/08/24 02:58:16;;;;;;;12.48;6.90;;;19.50;99.90;;;;;;4954751;29;20030;-71
2022/08/24 03:00:46;;;;;;;12.43;6.85;;;19.50;99.90;;;;;;4987170;28;20031;-67
2022/08/24 03:03:16;;;;;;;11.48;7.03;;;19.40;99.90;;;;;;4986559;28;20075;-74
2022/08/24 03:05:42;;;;;;;10.45;6.57;;;19.50;99.90;;;;;;4970804;28;20023;-68
2022/08/24 03:08:08;;;;;;;13.35;6.95;;;19.50;99.90;;;;;;4955775;28;20034;-75
2022/08/24 03:10:34;;;;;;;14.27;6.63;;;19.50;99.90;;;;;;4986995;28;20034;-69
2022/08/24 03:13:02;;;;;;;13.30;6.97;;;19.50;99.90;;;;;;4986899;28;20035;-74
2022/08/24 03:15:28;;;;;;;10.73;6.65;;;19.50;99.90;;;;;;4954332;28;20035;-71
2022/08/24 03:17:55;;;;;;;14.57;7.03;;;19.50;99.90;;;;;;4970606;28;20031;-66
2022/08/24 03:20:23;;;;;;;9.25;6.13;;;19.50;99.90;;;;;;4970519;28;20482;-62
2022/08/24 03:22:50;;;;;;;12.57;6.40;;;19.50;99.90;;;;;;4986714;28;20035;-69
2022/08/24 03:25:17;;;;;;;10.25;6.03;;;19.50;99.90;;;;;;4987024;28;20027;-63
2022/08/24 03:27:44;;;;;;;10.25;6.45;;;19.50;99.90;;;;;;4967001;28;20030;-69
2022/08/24 03:30:13;;;;;;;13.52;6.63;;;19.50;99.90;;;;;;4986989;28;20031;-71
2022/08/24 03:32:41;;;;;;;16.23;6.47;;;19.50;99.90;;;;;;4986494;28;20036;-71
2022/08/24 03:35:08;;;;;;;10.02;6.10;;;19.50;99.90;;;;;;4955721;28;20102;-74
2022/08/24 03:37:34;;;;;;;10.48;6.50;;;19.50;99.90;;;;;;4956066;28;20078;-63
2022/08/24 03:40:00;;;;;;;9.98;5.88;;;19.50;99.90;;;;;;4970257;28;20043;-62
2022/08/24 03:42:26;;;;;;;12.02;7.05;;;19.50;99.90;;;;;;4986398;28;20143;-65
2022/08/24 03:44:52;;;;;;;10.60;6.25;;;19.50;99.90;;;;;;4986885;28;20501;-68
2022/08/24 03:47:20;;;;;;;14.52;7.68;;;19.50;99.90;;;;;;4986385;28;20047;-72
2022/08/24 03:49:45;;;;;;;8.90;6.47;;;19.50;99.90;;;;;;4986556;28;20031;-74
2022/08/24 03:52:11;;;;;;;11.55;7.25;;;19.60;99.90;;;;;;4985762;28;20043;-74
2022/08/24 03:54:37;;;;;;;12.88;7.15;;;19.50;99.90;;;;;;4970174;28;20023;-73
2022/08/24 03:57:03;;;;;;;10.50;6.68;;;19.50;99.90;;;;;;4986270;28;20027;-74
2022/08/24 03:59:29;;;;;;;12.20;6.85;;;19.50;99.90;;;;;;4954781;29;20078;-63
2022/08/24 04:01:57;;;;;;;10.32;6.97;;;19.50;99.90;;;;;;4985863;28;20505;-71
2022/08/24 04:04:25;;;;;;;13.10;6.88;;;19.50;99.90;;;;;;4969515;28;20576;-69
2022/08/24 04:06:51;;;;;;;12.63;6.93;;;19.50;99.90;;;;;;4985876;28;20466;-74
2022/08/24 04:09:18;;;;;;;13.30;7.03;;;19.60;99.90;;;;;;4969200;28;20016;-74
2022/08/24 04:11:46;;;;;;;11.70;7.60;;;19.50;99.90;;;;;;4969272;28;20027;-69
2022/08/24 04:14:15;;;;;;;11.43;7.30;;;19.50;99.90;;;;;;4981929;28;20050;-72
2022/08/24 04:16:44;;;;;;;14.02;7.65;;;19.50;99.90;;;;;;4952876;28;20031;-72
2022/08/24 04:19:21;;;;;;;12.18;7.47;;;19.50;99.90;;;;;;4969028;28;20055;-63
2022/08/24 04:21:47;;;;;;;13.35;8.00;;;19.50;99.90;;;;;;4953186;28;20505;-68
2022/08/24 04:24:15;;;;;;;12.68;7.78;;;19.50;99.90;;;;;;4968659;28;20030;-63
2022/08/24 04:26:41;;;;;;;13.02;8.85;;;19.40;99.90;;;;;;4985622;28;20027;-63
2022/08/24 04:29:11;;;;;;;10.18;7.03;;;19.50;99.90;;;;;;4969248;28;20126;-62
2022/08/24 04:31:45;;;;;;;11.88;7.55;;;19.50;99.90;;;;;;4985335;28;20463;-73
2022/08/24 04:34:13;;;;;;;12.10;6.93;;;19.50;99.90;;;;;;4972342;28;20034;-69
2022/08/24 04:36:42;;;;;;;14.40;8.45;;;19.40;99.90;;;;;;4985498;28;20050;-63
2022/08/24 04:39:08;;;;;;;12.73;8.55;;;19.50;99.90;;;;;;4985448;28;20504;-62
2022/08/24 04:41:46;;;;;;;12.98;7.47;;;19.40;99.90;;;;;;4954136;28;20032;-62
2022/08/24 04:44:13;;;;;;;15.05;8.82;;;19.40;99.90;;;;;;4985186;28;20048;-63
2022/08/24 04:46:38;;;;;;;12.30;8.38;;;19.40;99.90;;;;;;4954043;28;20544;-62
2022/08/24 04:49:04;;;;;;;20.45;7.90;;;19.40;99.90;;;;;;4968785;28;20074;-62
2022/08/24 04:51:31;;;;;;;13.88;8.82;;;19.50;99.90;;;;;;4985406;28;20023;-68
2022/08/24 04:53:58;;;;;;;14.05;8.50;;;19.40;99.90;;;;;;4952505;29;20042;-64
2022/08/24 04:56:25;;;;;;;13.10;8.65;;;19.40;99.90;;;;;;4985207;28;20050;-61
2022/08/24 04:58:54;;;;;;;14.57;8.27;;;19.50;99.90;;;;;;4970169;28;20051;-74
2022/08/24 05:01:24;;;;;;;11.88;7.78;;;19.50;99.90;;;;;;4955113;28;20039;-63
2022/08/24 05:03:53;;;;;;;13.35;7.82;;;19.50;99.90;;;;;;4969889;28;20019;-74
2022/08/24 05:06:21;;;;;;;13.00;8.05;;;19.40;99.90;;;;;;4953904;29;20039;-75
2022/08/24 05:08:47;;;;;;;13.45;8.02;;;19.40;99.90;;;;;;4953425;28;20026;-62
2022/08/24 05:11:16;;;;;;;12.07;7.55;;;19.50;99.90;;;;;;4986182;28;20039;-73
2022/08/24 05:13:43;;;;;;;13.65;9.02;;;19.40;99.90;;;;;;4986012;28;20035;-74
2022/08/24 05:16:15;;;;;;;12.75;7.97;;;19.50;99.90;;;;;;4955200;28;20355;-73
2022/08/24 05:18:41;;;;;;;13.77;8.25;;;19.50;99.90;;;;;;4986130;28;20468;-62
2022/08/24 05:21:10;;;;;;;16.55;8.38;;;19.50;99.90;;;;;;4969978;28;20043;-68
2022/08/24 05:23:38;;;;;;;15.40;8.88;;;19.50;99.90;;;;;;4953716;28;20115;-62
2022/08/24 05:26:10;;;;;;;14.13;7.68;;;19.50;99.90;;;;;;4955831;28;20525;-63
2022/08/24 05:28:38;;;;;;;13.50;8.13;;;19.50;99.90;;;;;;4959679;28;20024;-61
2022/08/24 05:31:13;;;;;;;17.75;9.63;;;19.50;99.90;;;;;;4969979;28;20035;-62
2022/08/24 05:33:40;;;;;;;15.05;9.07;;;19.50;99.90;;;;;;4954049;28;20130;-66
2022/08/24 05:36:13;;;;;;;14.93;8.55;;;19.50;99.90;;;;;;4955651;28;20023;-70
2022/08/24 05:38:39;;;;;;;13.18;9.32;;;19.40;99.90;;;;;;4955349;28;20039;-66
2022/08/24 05:41:05;;;;;;;12.40;8.07;;;19.40;99.90;;;;;;4969585;28;20039;-63
2022/08/24 05:43:34;;;;;;;12.85;8.02;;;19.50;99.90;;;;;;4953940;28;20433;-68
2022/08/24 05:46:00;;;;;;;16.10;9.77;;;19.50;99.90;;;;;;4969469;28;20066;-62
2022/08/24 05:48:26;;;;;;;15.68;9.95;;;19.50;99.90;;;;;;4985619;28;20474;-75
2022/08/24 05:51:08;;;;;;;13.90;8.30;;;19.50;99.90;;;;;;4956969;28;20031;-74
2022/08/24 05:53:42;;;;;;;14.10;8.85;;;19.50;99.90;;;;;;4962263;28;20031;-75
2022/08/24 05:56:11;;;;;;;11.65;7.65;;;19.50;99.90;;;;;;4953384;28;20031;-64
2022/08/24 05:58:37;;;;;;;13.15;8.07;;;19.50;99.90;;;;;;4969336;28;20142;-66
2022/08/24 06:01:20;;;;;;;17.60;8.75;;;19.50;99.90;;;;;;4954752;28;20026;-62
2022/08/24 06:03:47;;;;;;;14.20;8.35;;;19.50;99.90;;;;;;4984995;28;20065;-67
2022/08/24 06:06:14;;;;;;;12.13;7.78;;;19.50;99.90;;;;;;4970217;28;20490;-67
2022/08/24 06:08:44;;;;;;;13.82;8.43;;;19.50;99.90;;;;;;4985373;28;20066;-74
2022/08/24 06:11:12;;;;;;;14.50;9.73;;;19.50;99.90;;;;;;4956506;28;20030;-67
2022/08/24 06:13:38;;;;;;;13.57;8.13;;;19.60;99.90;;;;;;4978697;28;20027;-71
2022/08/24 06:16:05;;;;;;;13.20;8.88;;;19.60;99.90;;;;;;4990268;28;20446;-75
2022/08/24 06:18:31;;;;;;;13.00;8.38;;;19.70;99.90;;;;;;4978039;28;20058;-75
2022/08/24 06:20:58;;;;;;;14.20;8.82;;;19.80;99.90;;;;;;4961460;28;20065;-62
2022/08/24 06:23:24;;;;;;;12.65;7.93;;;19.90;99.90;;;;;;4962344;28;20026;-76
2022/08/24 06:28:43;;;;;;;12.88;7.60;;;20.10;99.90;;;;;;4980352;28;20027;-76
2022/08/24 06:31:09;;;;;;;14.98;8.00;;;20.10;99.90;;;;;;4972057;28;20110;-62
2022/08/24 06:33:36;;;;;;;11.70;7.25;;;20.00;99.90;;;;;;4991084;28;20077;-71
2022/08/24 06:36:02;;;;;;;13.38;8.20;;;20.00;99.90;;;;;;4975178;28;20074;-74
2022/08/24 06:38:29;;;;;;;12.55;7.25;;;19.90;99.90;;;;;;4961799;28;20027;-67
2022/08/24 06:40:55;;;;;;;14.63;7.82;;;20.00;99.90;;;;;;4960331;28;20067;-74
2022/08/24 06:43:23;;;;;;;10.88;6.63;;;20.00;99.90;;;;;;4960080;28;20074;-62
2022/08/24 06:45:54;;;;;;;10.85;7.18;;;20.00;99.90;;;;;;4960181;28;20502;-74
2022/08/24 06:48:26;;;;;;;12.02;7.07;;;20.00;99.90;;;;;;4959262;28;20063;-76
2022/08/24 06:50:54;;;;;;;12.18;8.00;;;20.10;99.90;;;;;;4958465;28;20385;-73
2022/08/24 06:53:20;;;;;;;11.82;7.53;;;20.10;99.90;;;;;;4974751;28;20031;-62
2022/08/24 06:55:54;;;;;;;10.98;7.35;;;20.10;99.90;;;;;;4991685;28;20099;-62
2022/08/24 06:58:21;;;;;;;13.07;7.47;;;20.10;99.90;;;;;;4959721;28;20381;-71
2022/08/24 07:00:48;;;;;;;10.02;7.03;;;20.00;99.90;;;;;;4959241;28;20023;-62
2022/08/24 07:03:16;;;;;;;12.55;6.55;;;20.00;99.90;;;;;;4958130;29;20401;-75
2022/08/24 07:05:52;;;;;;;13.27;7.43;;;20.10;99.90;;;;;;4957580;28;20034;-62
2022/08/24 07:08:36;;;;;;;11.68;7.78;;;20.10;99.90;;;;;;4989678;28;20035;-64
2022/08/24 07:11:03;;;;;;;11.65;7.30;;;20.10;99.90;;;;;;4957961;28;20089;-74
2022/08/24 07:13:31;;;;;;;12.55;8.02;;;20.10;99.90;;;;;;4954857;28;20019;-76
2022/08/24 07:15:58;;;;;;;13.40;8.20;;;20.10;99.90;;;;;;4987625;28;20035;-63
2022/08/24 07:18:24;;;;;;;11.55;7.60;;;20.20;99.90;;;;;;4973246;28;20053;-74
2022/08/24 07:20:51;;;;;;;12.68;7.75;;;20.20;99.90;;;;;;4964040;28;20031;-62
2022/08/24 07:23:21;;;;;;;13.32;8.68;;;20.20;99.90;;;;;;4989589;28;20027;-76
2022/08/24 07:25:47;;;;;;;14.48;9.07;;;20.30;99.90;;;;;;4958233;28;20046;-64
2022/08/24 07:28:14;;;;;;;13.77;8.35;;;20.20;99.90;;;;;;4954505;28;20078;-74
2022/08/24 07:30:42;;;;;;;14.23;9.18;;;20.30;99.90;;;;;;4971148;28;20027;-75
2022/08/24 07:33:09;;;;;;;13.18;7.95;;;20.30;99.90;;;;;;4967789;28;20028;-75
2022/08/24 07:35:37;;;;;;;15.15;9.93;;;20.40;99.90;;;;;;4968874;28;20034;-62
2022/08/24 07:38:04;;;;;;;15.98;9.45;;;20.40;99.90;;;;;;4954661;28;20696;-62
2022/08/24 07:40:32;;;;;;;10.98;7.95;;;20.40;99.90;;;;;;4954860;28;20031;-63
2022/08/24 07:42:58;;;;;;;14.88;8.95;;;20.50;99.90;;;;;;4954188;29;20390;-69
2022/08/24 07:45:27;;;;;;;15.68;8.93;;;20.50;99.90;;;;;;4986976;28;20056;-64
2022/08/24 07:47:55;;;;;;;15.55;9.23;;;20.50;99.90;;;;;;4955817;28;20492;-68
2022/08/24 07:50:47;;;;;;;12.98;8.80;;;20.50;99.90;;;;;;4956676;28;20058;-63
2022/08/24 07:53:14;;;;;;;13.95;8.93;;;20.60;99.90;;;;;;4986409;28;20035;-75
2022/08/24 07:55:40;;;;;;;15.35;10.02;;;20.60;99.90;;;;;;4970843;28;20038;-63
2022/08/24 07:58:06;;;;;;;16.92;9.02;;;20.50;99.90;;;;;;4987001;28;20027;-63
2022/08/24 08:00:32;;;;;;;11.77;8.07;;;20.60;99.90;;;;;;4962882;28;20480;-66
2022/08/24 08:03:03;;;;;;;13.05;9.07;;;20.70;99.90;;;;;;4964838;28;20054;-67
2022/08/24 08:05:36;;;;;;;15.70;9.32;;;20.60;99.90;;;;;;4954999;28;20035;-75
2022/08/24 08:08:02;;;;;;;16.25;9.75;;;20.50;99.90;;;;;;4954398;28;20098;-65
2022/08/24 08:10:32;;;;;;;15.95;9.57;;;20.50;99.90;;;;;;4970434;28;20027;-62
2022/08/24 08:12:58;;;;;;;14.80;10.07;;;20.50;99.90;;;;;;4954045;29;20039;-65
2022/08/24 08:15:25;;;;;;;15.60;10.02;;;20.60;99.90;;;;;;4986636;28;20032;-63
2022/08/24 08:18:01;;;;;;;16.05;10.30;;;20.70;99.90;;;;;;4986157;28;20038;-63
2022/08/24 08:20:27;;;;;;;14.73;9.30;;;20.70;99.90;;;;;;4953638;28;20077;-65
2022/08/24 08:26:19;;;;;;;15.05;9.43;;;20.80;99.90;;;;;;4965465;28;20101;-63
2022/08/24 08:29:14;;;;;;;16.13;10.35;;;20.80;99.90;;;;;;4946404;29;20058;-63
2022/08/24 08:31:41;;;;;;;16.45;10.45;;;20.80;99.90;;;;;;4945861;29;20031;-63
2022/08/24 08:34:08;;;;;;;16.95;10.18;;;20.90;99.90;;;;;;4952165;29;20039;-75
2022/08/24 08:36:38;;;;;;;14.65;9.65;;;21.00;99.90;;;;;;4940443;29;20062;-63
2022/08/24 08:39:11;;;;;;;17.98;10.93;;;21.00;99.90;;;;;;4934049;29;20134;-76
2022/08/24 08:41:47;;;;;;;16.27;9.77;;;21.10;99.90;;;;;;4947856;28;20063;-63
2022/08/24 08:44:55;;;;;;;13.50;9.32;;;20.90;99.90;;;;;;4949569;28;20134;-75
2022/08/24 08:47:49;;;;;;;14.75;10.18;;;20.90;99.90;;;;;;4943794;28;20560;-71
2022/08/24 08:50:39;;;;;;;13.73;8.90;;;20.90;99.90;;;;;;4948775;28;20027;-66
2022/08/24 08:53:18;;;;;;;14.02;9.40;;;21.00;99.90;;;;;;4945708;29;20086;-75
2022/08/24 08:56:14;;;;;;;13.60;9.27;;;21.10;99.90;;;;;;4949484;28;20077;-76
2022/08/24 08:59:06;;;;;;;15.35;9.63;;;21.20;99.90;;;;;;4939292;29;20032;-63
2022/08/24 09:01:57;;;;;;;15.43;8.90;;;21.20;99.90;;;;;;4925049;28;20056;-64
2022/08/24 09:05:01;;;;;;;12.98;8.55;;;21.30;99.90;;;;;;4934270;29;20455;-68
2022/08/24 09:07:45;;;;;;;13.63;9.50;;;21.20;99.90;;;;;;4952775;29;20029;-75
2022/08/24 09:10:38;;;;;;;13.40;9.27;;;21.20;99.90;;;;;;4952675;29;20070;-75
2022/08/24 09:13:33;;;;;;;14.75;8.98;;;21.30;99.90;;;;;;4952327;28;20035;-63
2022/08/24 09:16:18;;;;;;;14.38;8.75;;;21.30;99.90;;;;;;4929424;29;20498;-74
2022/08/24 09:19:08;;;;;;;13.18;7.57;;;21.30;99.90;;;;;;4950923;28;20027;-75
2022/08/24 09:22:12;;;;;;;13.23;8.90;;;21.30;99.90;;;;;;4952291;28;20043;-76
2022/08/24 09:25:15;;;;;;;13.45;9.15;;;21.30;99.90;;;;;;4941634;29;20035;-63
2022/08/24 09:28:12;;;;;;;18.65;11.38;;;21.30;99.90;;;;;;4897554;29;20043;-75
2022/08/24 09:31:03;;;;;;;21.52;9.93;;;21.30;99.90;;;;;;4913820;29;20513;-63
2022/08/24 09:34:07;;;;;;;12.73;8.52;;;21.30;99.90;;;;;;4913163;29;20036;-62
2022/08/24 09:36:47;;;;;;;13.60;8.50;;;21.30;99.90;;;;;;4892965;29;20106;-76
2022/08/24 09:39:35;;;;;;;14.23;8.55;;;21.20;99.90;;;;;;4914227;29;20043;-75
2022/08/24 09:42:19;;;;;;;14.60;8.18;;;21.30;99.90;;;;;;4884263;29;20089;-63
2022/08/24 09:45:21;;;;;;;13.25;8.98;;;21.40;99.90;;;;;;4882211;29;20080;-62
2022/08/24 09:48:08;;;;;;;14.57;8.05;;;21.60;99.90;;;;;;4891284;29;20524;-67
2022/08/24 09:50:42;;;;;;;12.48;7.72;;;21.50;99.90;;;;;;4893942;29;20151;-76
2022/08/24 09:53:22;;;;;;;12.88;8.65;;;21.60;99.90;;;;;;4894801;29;20032;-75
2022/08/24 09:55:51;;;;;;;14.93;9.63;;;21.70;99.90;;;;;;4892168;29;20111;-76
2022/08/24 09:58:56;;;;;;;15.10;8.80;;;21.70;99.90;;;;;;4888589;29;20040;-63
2022/08/24 10:01:53;;;;;;;14.10;8.35;;;21.70;99.90;;;;;;4894716;29;20041;-69
2022/08/24 10:04:33;;;;;;;13.95;8.30;;;21.70;99.90;;;;;;4922287;29;20102;-75
2022/08/24 10:07:18;;;;;;;10.20;6.47;;;21.60;99.90;;;;;;4954027;28;20041;-62
2022/08/24 10:09:53;;;;;;;12.25;6.65;;;21.60;99.90;;;;;;4953905;28;20031;-74
2022/08/24 10:12:28;;;;;;;13.98;6.97;;;21.60;99.90;;;;;;4953878;28;20027;-63
2022/08/24 10:15:09;;;;;;;11.40;7.25;;;21.50;99.90;;;;;;4953124;29;20026;-67
2022/08/24 10:18:07;;;;;;;12.13;6.95;;;21.70;99.90;;;;;;4954142;28;20035;-76
2022/08/24 10:20:39;;;;;;;13.63;7.10;;;21.60;99.90;;;;;;4953933;28;20099;-74
2022/08/24 10:23:14;;;;;;;13.57;7.68;;;21.50;99.90;;;;;;4953503;28;20039;-71
2022/08/24 10:25:55;;;;;;;13.55;7.22;;;21.60;99.90;;;;;;4952860;28;20398;-75
2022/08/24 10:28:59;;;;;;;14.35;7.47;;;21.50;99.90;;;;;;4952908;28;20482;-69
2022/08/24 10:31:37;;;;;;;11.65;6.80;;;21.50;99.90;;;;;;4953834;28;20448;-75
2022/08/24 10:34:09;;;;;;;11.88;7.68;;;21.50;99.90;;;;;;4953784;28;20474;-65
2022/08/24 10:36:43;;;;;;;9.57;6.63;;;21.50;99.90;;;;;;4953953;28;20058;-74
2022/08/24 10:39:51;;;;;;;10.13;6.43;;;21.40;99.90;;;;;;4953583;28;20085;-75
2022/08/24 10:45:28;;;;;;;;;;;21.30;99.90;;;;;;4925025;29;20091;-74
2022/08/24 10:48:06;;;;;;;9.48;5.13;;;21.20;99.90;;;;;;4932243;29;19911;-61
2022/08/24 10:50:43;;;;;;;11.20;4.53;;;21.20;99.90;;;;;;4932671;29;20035;-75
2022/08/24 10:53:30;;;;;;;11.02;5.57;;;21.20;99.90;;;;;;4932399;29;20040;-75
2022/08/24 10:56:26;;;;;;;8.02;4.80;;;21.30;99.90;;;;;;4931441;29;20483;-75
2022/08/24 10:59:17;;;;;;;8.18;5.15;;;21.40;99.90;;;;;;4931115;29;20050;-71
2022/08/24 11:02:01;;;;;;;17.20;11.02;;;21.60;99.90;;;;;;4933884;29;20454;-74
2022/08/24 11:04:29;;;;;;;11.93;7.47;;;21.80;99.90;;;;;;4936159;29;20114;-68
2022/08/24 11:07:04;;;;;;;11.25;5.68;;;21.80;99.90;;;;;;4936037;29;20399;-74
2022/08/24 11:09:54;;;;;;;7.18;4.55;;;21.90;99.90;;;;;;4937047;29;20034;-76
2022/08/24 11:12:29;;;;;;;9.40;4.35;;;21.90;99.90;;;;;;4935103;29;20070;-75
2022/08/24 11:14:58;;;;;;;11.98;4.85;;;21.90;99.90;;;;;;4935867;29;20040;-71
2022/08/24 11:17:26;;;;;;;7.53;5.28;;;22.10;99.90;;;;;;4942368;29;20414;-75
2022/08/24 11:19:52;;;;;;;10.40;5.63;;;22.00;99.90;;;;;;4956498;28;20047;-75
2022/08/24 11:22:27;;;;;;;7.85;5.07;;;22.00;99.90;;;;;;4956809;28;20110;-74
2022/08/24 11:24:58;;;;;;;10.18;5.85;;;22.10;99.90;;;;;;4956727;28;20512;-75
2022/08/24 11:27:35;;;;;;;7.95;4.80;;;22.10;99.90;;;;;;4956928;28;20023;-75
2022/08/24 11:30:23;;;;;;;8.05;4.03;;;22.00;99.90;;;;;;4957632;28;20024;-62
2022/08/24 11:32:56;;;;;;;6.75;3.97;;;22.00;99.90;;;;;;4958131;28;20366;-66
2022/08/24 11:35:32;;;;;;;8.20;4.55;;;22.20;99.90;;;;;;4956911;28;20027;-72
2022/08/24 11:38:30;;;;;;;7.25;4.90;;;22.20;99.90;;;;;;4957043;28;20026;-75
2022/08/24 11:41:12;;;;;;;9.57;4.70;;;22.20;99.90;;;;;;4931000;29;20142;-62
2022/08/24 11:43:41;;;;;;;6.32;4.07;;;22.20;99.90;;;;;;4932416;29;20130;-63
2022/08/24 11:46:10;;;;;;;8.80;4.75;;;22.20;99.90;;;;;;4934900;29;20047;-76
2022/08/24 11:48:52;;;;;;;6.60;4.10;;;22.30;99.90;;;;;;4935022;29;20504;-75
2022/08/24 11:51:50;;;;;;;7.53;4.18;;;22.30;99.90;;;;;;4934371;29;20542;-75
2022/08/24 11:54:41;;;;;;;5.68;4.03;;;22.30;99.90;;;;;;4933752;29;20083;-75
2022/08/24 11:57:17;;;;;;;7.93;4.55;;;22.20;99.90;;;;;;4932153;29;20573;-75
2022/08/24 11:59:45;;;;;;;6.05;4.10;;;22.30;99.90;;;;;;4933125;29;20120;-72
2022/08/24 12:02:33;;;;;;;7.40;4.18;;;22.30;99.90;;;;;;4934582;29;20044;-74
2022/08/24 12:05:09;;;;;;;6.88;4.03;;;22.30;99.90;;;;;;4935157;29;20532;-70
2022/08/24 12:08:09;;;;;;;7.68;4.35;;;22.30;99.90;;;;;;4935344;29;20058;-77
2022/08/24 12:10:41;;;;;;;9.52;4.63;;;22.20;99.90;;;;;;4904110;29;20043;-72
2022/08/24 12:13:18;;;;;;;7.70;4.05;;;22.10;99.90;;;;;;4913831;29;20552;-75
2022/08/24 12:15:53;;;;;;;5.55;3.35;;;22.00;99.90;;;;;;4916311;29;20119;-72
2022/08/24 12:18:24;;;;;;;5.80;4.53;;;22.00;99.90;;;;;;4933189;29;20470;-73
2022/08/24 12:20:52;;;;;;;7.30;4.45;;;22.00;99.90;;;;;;4934717;28;20379;-63
2022/08/24 12:23:20;;;;;;;7.97;4.20;;;22.10;99.90;;;;;;4933722;29;20031;-74
2022/08/24 12:26:02;;;;;;;7.20;4.55;;;22.10;99.90;;;;;;4933726;29;20068;-63
2022/08/24 12:28:52;;;;;;;8.00;5.17;;;22.00;99.90;;;;;;4933755;28;20075;-68
2022/08/24 12:31:23;;;;;;;8.27;4.45;;;22.10;99.90;;;;;;4933278;29;20462;-75
2022/08/24 12:33:55;;;;;;;7.60;4.75;;;22.20;99.90;;;;;;4933828;29;20051;-70
2022/08/24 12:36:37;;;;;;;7.05;4.75;;;22.30;99.90;;;;;;4934556;29;20047;-74
2022/08/24 12:39:17;;;;;;;8.05;4.93;;;22.30;99.90;;;;;;4933823;29;20035;-74
2022/08/24 12:42:27;;;;;;;6.70;4.70;;;22.40;99.90;;;;;;4933899;29;20043;-63
2022/08/24 12:45:00;;;;;;;5.32;3.88;;;22.50;99.90;;;;;;4918378;29;20047;-63
2022/08/24 12:47:30;;;;;;;8.52;4.35;;;22.30;99.90;;;;;;4950169;29;20035;-63
2022/08/24 12:50:10;;;;;;;7.93;4.90;;;22.50;99.90;;;;;;4954922;28;20522;-75
2022/08/24 12:52:48;;;;;;;6.80;4.22;;;22.50;99.90;;;;;;4954751;29;20500;-63
2022/08/24 12:55:28;;;;;;;8.77;4.55;;;22.50;99.90;;;;;;4955256;28;20098;-75
2022/08/24 12:58:04;;;;;;;7.70;4.70;;;;;;;;;;4955170;28;20059;-74
2022/08/24 13:00:40;;;;;;;9.13;4.07;;;22.70;99.90;;;;;;4954568;28;20043;-63
2022/08/24 13:03:21;;;;;;;5.90;4.32;;;22.70;99.90;;;;;;4955601;28;20039;-63
2022/08/24 13:05:52;;;;;;;5.55;3.70;;;22.80;99.90;;;;;;4953171;28;20031;-68
2022/08/24 13:08:32;;;;;;;7.10;4.03;;;22.70;99.90;;;;;;4954689;28;20035;-63
2022/08/24 13:11:05;;;;;;;6.60;4.00;;;22.70;99.90;;;;;;4951544;28;20031;-62
2022/08/24 13:13:55;;;;;;;6.18;3.72;;;;;;;;;;4951835;28;20063;-69
2022/08/24 13:16:40;;;;;;;8.52;4.75;;;;;;;;;;4951546;29;20139;-73
2022/08/24 13:19:12;;;;;;;7.32;4.13;;;;;;;;;;4952635;29;20087;-73
2022/08/24 13:21:45;;;;;;;8.15;4.53;;;23.70;99.90;;;;;;4951386;28;20130;-75